AirNav   Phillips 66 Aviation Fuel
 
 868 users online  

2MA9 Digital Heliport
Tewksbury, Massachusetts, USA

GOING TO TEWKSBURY?


FAA INFORMATION EFFECTIVE 12 SEPTEMBER 2019

Location

FAA Identifier: 2MA9
Lat/Long: 42-38-21.3300N 071-13-28.2100W
42-38.355500N 071-13.470167W
42.6392583,-71.2245028
(estimated)
Elevation: 130 ft. / 40 m (estimated)
Variation: 16W (1980)
From city: 2 miles SE of TEWKSBURY, MA
Time zone: UTC -4 (UTC -5 during Standard Time)
Zip code: 01876

Heliport Operations

Heliport use: Private use. Permission required prior to landing
Activation date: 10/1986
Control tower: no
ARTCC: BOSTON CENTER
FSS: BRIDGEPORT FLIGHT SERVICE STATION
Attendance: UNATNDD
Wind indicator: yes
Segmented circle: no

Heliport Communications

UNICOM: 123.05
WX ASOS at LWM (6 nm NE): PHONE 978-687-8017
WX ASOS at BED (11 nm S): 124.6 (781-274-9733)
WX ASOS at BVY (14 nm E): PHONE 978-921-5042
WX AWOS-3PT at ASH (15 nm NW): 125.1 (603-578-0473)
WX ASOS at BOS (19 nm SE): PHONE 617-567-5762
WX ASOS at MHT (20 nm NW): 119.55 (603-621-1766)

Nearby radio navigation aids

VOR radial/distance  VOR name  Freq  Var
LWMr238/8.3LAWRENCE VOR/DME112.5015W
MHTr170/15.2MANCHESTER VOR/DME114.4015W
BOSr344/19.8BOSTON VOR/DME112.7016W
PSMr229/31.8PEASE VOR/DME116.5016W
GDMr095/37.2GARDNER VOR/DME110.6014W
CONr171/38.1CONCORD VOR/DME112.9015W

 
NDB name  Hdg/Dist  Freq  Var  ID
HAGET271/1.240215WLW .-.. .--
SHAKER HILL006/11.225116WSKR ... -.- .-.
ROLLINS223/39.026016WESG . ... --.

Heliport Services

Runway Information

Helipad H1

Dimensions: 26 x 24 ft. / 8 x 7 m
Surface: concrete
Traffic pattern: leftleft

Heliport Ownership and Management from official FAA records

Ownership: Privately-owned
Owner: DIGITAL EQUIPMENT CORP.
HANSCOM FIELD CORP.
BEDFORD, MA 01730
Phone 508-493-7200
Manager: M. HENRY WIFHOLM
HANSCOM FIELD CORP.
BEDFORD, MA 01730
Phone 508-493-7200

Additional Remarks

FOR CD CTC BOSTON APCH AT 603-594-5554.

Instrument Procedures

There are no published instrument procedures at 2MA9.

Some nearby airports with instrument procedures:

KLWM - Lawrence Municipal Airport (6 nm NE)
KBED - Laurence G Hanscom Field Airport (11 nm S)
KBVY - Beverly Regional Airport (14 nm E)
KASH - Boire Field Airport (15 nm NW)
6B6 - Minute Man Air Field (17 nm SW)
KBOS - General Edward Lawrence Logan International Airport (19 nm SE)
KMHT - Manchester Airport (20 nm NW)
 
Loc | Ops | Rwys | IFR | FBO | Links
Com | Nav | Svcs | Stats | Notes
Area around 2MA9 (Digital Heliport)
 
Road maps at: MapQuest Bing Google
 
Aerial photo
No photo
 
Sectional chart

 
Airport distance calculator
Flying to Digital Heliport? Find the distance to fly.

From to 2MA9

Sunrise and sunset
Times for 15-Sep-2019
 Local
(UTC-4)
 Zulu
(UTC)
Morning civil twilight05:5709:57
Sunrise06:2610:26
Sunset18:5522:55
Evening civil twilight19:2323:23

Current date and time
Zulu (UTC)  15-Sep-2019 23:33:24
Local (UTC-4)  15-Sep-2019 19:33:24
 
METAR
KLWM 
6nm NE 
152254Z 26008KT 10SM CLR 22/12 A3004 RMK AO2 SLP172 T02220117 $
KBED 
11nm S 
152251Z 28006KT 10SM FEW120 BKN230 23/12 A3003 RMK AO2 SLP180 T02330117
KBVY 
14nm E 
152253Z 26005KT 10SM CLR 22/12 A3002 RMK AO2 SLP159 T02170117
KASH 
15nm NW 
152256Z 00000KT 10SM FEW045 BKN110 22/13 A3003 RMK AO2 SLP174 T02170128
KBOS 
19nm SE 
152254Z 27010KT 10SM SCT140 BKN200 25/12 A3003 RMK AO2 SLP168 T02500117 $
KMHT 
20nm NW 
152253Z 27005KT 10SM BKN100 BKN150 23/11 A3002 RMK AO2 SLP175 T02280106 $
TAF
KBED 
11nm S 
151721Z 1518/1618 27007KT P6SM FEW070 FM152300 29004KT P6SM SCT070 FM160600 00000KT P6SM SCT050 FM161200 35003KT P6SM BKN100 FM161600 33004KT P6SM SCT100 FM161700 29004KT P6SM SCT100
KBOS 
19nm SE 
152030Z 1521/1624 26010KT P6SM FEW050 FM152300 27008KT P6SM FEW060 FM160300 30006KT P6SM SCT080 FM160700 32005KT P6SM SCT060 FM161400 02005KT P6SM BKN090 FM161700 19006KT P6SM SCT100 FM162200 03006KT P6SM SCT250
KMHT 
20nm NW 
151720Z 1518/1618 28008KT P6SM FEW100 FM152300 27005KT P6SM SCT100 FM161200 32005KT P6SM BKN035
NOTAMs
Click for the latest NOTAMs
NOTAMs are issued by the DoD/FAA and will open in a separate window not controlled by AirNav.

 

 
 

Would you like to see your business listed on this page?

 If your business provides an interesting product or service to pilots, flight crews, aircraft, or users of the Digital Heliport, you should consider listing it here.  To start the listing process, click on the button below
 
Add a business
 

Other Pages about Digital Heliport

Update a link
 
Copyright © AirNav, LLC. All rights reserved. Privacy Policy  Contact